sensor_id;sensor_type;location;lat;lon;timestamp;temperature;humidity
48876;DHT22;34689;51.644;5.618;2023-05-07T00:02:13;16.10;99.90
48876;DHT22;34689;51.644;5.618;2023-05-07T00:04:39;16.10;99.90
48876;DHT22;34689;51.644;5.618;2023-05-07T00:07:07;16.10;99.90
48876;DHT22;34689;51.644;5.618;2023-05-07T00:09:33;16.10;99.90
48876;DHT22;34689;51.644;5.618;2023-05-07T00:11:59;16.10;99.90
48876;DHT22;34689;51.644;5.618;2023-05-07T00:14:27;16.10;99.90
48876;DHT22;34689;51.644;5.618;2023-05-07T00:16:53;16.10;99.90
48876;DHT22;34689;51.644;5.618;2023-05-07T00:19:18;16.10;99.90
48876;DHT22;34689;51.644;5.618;2023-05-07T00:21:44;16.10;99.90
48876;DHT22;34689;51.644;5.618;2023-05-07T00:24:10;16.10;99.90
48876;DHT22;34689;51.644;5.618;2023-05-07T00:26:38;16.10;99.90
48876;DHT22;34689;51.644;5.618;2023-05-07T00:29:04;16.10;99.90
48876;DHT22;34689;51.644;5.618;2023-05-07T00:31:29;16.10;99.90
48876;DHT22;34689;51.644;5.618;2023-05-07T00:33:57;16.10;99.90
48876;DHT22;34689;51.644;5.618;2023-05-07T00:36:23;16.00;99.90
48876;DHT22;34689;51.644;5.618;2023-05-07T00:38:51;16.00;99.90
48876;DHT22;34689;51.644;5.618;2023-05-07T00:41:17;16.00;99.90
48876;DHT22;34689;51.644;5.618;2023-05-07T00:43:43;16.00;99.90
48876;DHT22;34689;51.644;5.618;2023-05-07T00:46:11;16.00;99.90
48876;DHT22;34689;51.644;5.618;2023-05-07T00:48:37;16.00;99.90
48876;DHT22;34689;51.644;5.618;2023-05-07T00:51:05;16.00;99.90
48876;DHT22;34689;51.644;5.618;2023-05-07T00:53:31;16.00;99.90
48876;DHT22;34689;51.644;5.618;2023-05-07T00:55:57;16.00;99.90
48876;DHT22;34689;51.644;5.618;2023-05-07T00:58:23;15.90;99.90
48876;DHT22;34689;51.644;5.618;2023-05-07T01:00:50;15.90;99.90
48876;DHT22;34689;51.644;5.618;2023-05-07T01:03:16;15.90;99.90
48876;DHT22;34689;51.644;5.618;2023-05-07T01:05:45;15.90;99.90
48876;DHT22;34689;51.644;5.618;2023-05-07T01:08:13;15.90;99.90
48876;DHT22;34689;51.644;5.618;2023-05-07T01:10:39;15.90;99.90
48876;DHT22;34689;51.644;5.618;2023-05-07T01:13:11;15.90;99.90
48876;DHT22;34689;51.644;5.618;2023-05-07T01:15:38;15.90;99.90
48876;DHT22;34689;51.644;5.618;2023-05-07T01:18:06;15.90;99.90
48876;DHT22;34689;51.644;5.618;2023-05-07T01:20:35;15.90;99.90
48876;DHT22;34689;51.644;5.618;2023-05-07T01:23:01;15.90;99.90
48876;DHT22;34689;51.644;5.618;2023-05-07T01:25:28;15.90;99.90
48876;DHT22;34689;51.644;5.618;2023-05-07T01:27:56;15.90;99.90
48876;DHT22;34689;51.644;5.618;2023-05-07T01:30:24;15.90;99.90
48876;DHT22;34689;51.644;5.618;2023-05-07T01:32:53;15.90;99.90
48876;DHT22;34689;51.644;5.618;2023-05-07T01:35:24;15.90;99.90
48876;DHT22;34689;51.644;5.618;2023-05-07T01:37:50;15.90;99.90
48876;DHT22;34689;51.644;5.618;2023-05-07T01:40:19;15.90;99.90
48876;DHT22;34689;51.644;5.618;2023-05-07T01:42:45;15.90;99.90
48876;DHT22;34689;51.644;5.618;2023-05-07T01:45:11;15.90;99.90
48876;DHT22;34689;51.644;5.618;2023-05-07T01:47:37;15.90;99.90
48876;DHT22;34689;51.644;5.618;2023-05-07T01:50:07;15.90;99.90
48876;DHT22;34689;51.644;5.618;2023-05-07T01:52:39;15.90;99.90
48876;DHT22;34689;51.644;5.618;2023-05-07T01:55:05;15.90;99.90
48876;DHT22;34689;51.644;5.618;2023-05-07T01:57:31;15.90;99.90
48876;DHT22;34689;51.644;5.618;2023-05-07T01:59:57;15.90;99.90
48876;DHT22;34689;51.644;5.618;2023-05-07T02:02:23;16.00;99.90
48876;DHT22;34689;51.644;5.618;2023-05-07T02:04:49;15.90;99.90
48876;DHT22;34689;51.644;5.618;2023-05-07T02:07:15;15.90;99.90
48876;DHT22;34689;51.644;5.618;2023-05-07T02:09:40;15.90;99.90
48876;DHT22;34689;51.644;5.618;2023-05-07T02:12:06;15.90;99.90
48876;DHT22;34689;51.644;5.618;2023-05-07T02:14:32;15.90;99.90
48876;DHT22;34689;51.644;5.618;2023-05-07T02:16:57;15.90;99.90
48876;DHT22;34689;51.644;5.618;2023-05-07T02:19:26;15.90;99.90
48876;DHT22;34689;51.644;5.618;2023-05-07T02:21:54;15.90;99.90
48876;DHT22;34689;51.644;5.618;2023-05-07T02:24:19;15.90;99.90
48876;DHT22;34689;51.644;5.618;2023-05-07T02:26:45;15.90;99.90
48876;DHT22;34689;51.644;5.618;2023-05-07T02:29:13;15.90;99.90
48876;DHT22;34689;51.644;5.618;2023-05-07T02:31:39;15.90;99.90
48876;DHT22;34689;51.644;5.618;2023-05-07T02:34:05;15.90;99.90
48876;DHT22;34689;51.644;5.618;2023-05-07T02:36:31;15.90;99.90
48876;DHT22;34689;51.644;5.618;2023-05-07T02:38:58;15.90;99.90
48876;DHT22;34689;51.644;5.618;2023-05-07T02:41:24;15.90;99.90
48876;DHT22;34689;51.644;5.618;2023-05-07T02:43:50;15.90;99.90
48876;DHT22;34689;51.644;5.618;2023-05-07T02:46:15;15.90;99.90
48876;DHT22;34689;51.644;5.618;2023-05-07T02:48:43;15.90;99.90
48876;DHT22;34689;51.644;5.618;2023-05-07T02:51:09;15.90;99.90
48876;DHT22;34689;51.644;5.618;2023-05-07T02:53:35;15.90;99.90
48876;DHT22;34689;51.644;5.618;2023-05-07T02:56:01;15.90;99.90
48876;DHT22;34689;51.644;5.618;2023-05-07T02:58:27;15.80;99.90
48876;DHT22;34689;51.644;5.618;2023-05-07T03:00:52;15.90;99.90
48876;DHT22;34689;51.644;5.618;2023-05-07T03:03:20;15.80;99.90
48876;DHT22;34689;51.644;5.618;2023-05-07T03:05:46;15.80;99.90
48876;DHT22;34689;51.644;5.618;2023-05-07T03:08:11;15.80;99.90
48876;DHT22;34689;51.644;5.618;2023-05-07T03:10:37;15.80;99.90
48876;DHT22;34689;51.644;5.618;2023-05-07T03:13:03;15.80;99.90
48876;DHT22;34689;51.644;5.618;2023-05-07T03:15:29;15.80;99.90
48876;DHT22;34689;51.644;5.618;2023-05-07T03:17:55;15.80;99.90
48876;DHT22;34689;51.644;5.618;2023-05-07T03:20:21;15.80;99.90
48876;DHT22;34689;51.644;5.618;2023-05-07T03:22:46;15.80;99.90
48876;DHT22;34689;51.644;5.618;2023-05-07T03:25:15;15.80;99.90
48876;DHT22;34689;51.644;5.618;2023-05-07T03:27:43;15.80;99.90
48876;DHT22;34689;51.644;5.618;2023-05-07T03:30:09;15.80;99.90
48876;DHT22;34689;51.644;5.618;2023-05-07T03:32:35;15.80;99.90
48876;DHT22;34689;51.644;5.618;2023-05-07T03:35:04;15.80;99.90
48876;DHT22;34689;51.644;5.618;2023-05-07T03:37:32;15.80;99.90
48876;DHT22;34689;51.644;5.618;2023-05-07T03:39:58;15.70;99.90
48876;DHT22;34689;51.644;5.618;2023-05-07T03:42:24;15.80;99.90
48876;DHT22;34689;51.644;5.618;2023-05-07T03:44:49;15.70;99.90
48876;DHT22;34689;51.644;5.618;2023-05-07T03:47:18;15.80;99.90
48876;DHT22;34689;51.644;5.618;2023-05-07T03:49:43;15.80;99.90
48876;DHT22;34689;51.644;5.618;2023-05-07T03:52:09;15.70;99.90
48876;DHT22;34689;51.644;5.618;2023-05-07T03:54:37;15.80;99.90
48876;DHT22;34689;51.644;5.618;2023-05-07T03:57:03;15.70;99.90
48876;DHT22;34689;51.644;5.618;2023-05-07T03:59:28;15.80;99.90
48876;DHT22;34689;51.644;5.618;2023-05-07T04:01:56;15.80;99.90
48876;DHT22;34689;51.644;5.618;2023-05-07T04:04:22;15.80;99.90
48876;DHT22;34689;51.644;5.618;2023-05-07T04:06:48;15.80;99.90
48876;DHT22;34689;51.644;5.618;2023-05-07T04:09:15;15.70;99.90
48876;DHT22;34689;51.644;5.618;2023-05-07T04:11:41;15.80;99.90
48876;DHT22;34689;51.644;5.618;2023-05-07T04:14:09;15.80;99.90
48876;DHT22;34689;51.644;5.618;2023-05-07T04:16:37;15.80;99.90
48876;DHT22;34689;51.644;5.618;2023-05-07T04:19:05;15.80;99.90
48876;DHT22;34689;51.644;5.618;2023-05-07T04:21:31;15.70;99.90
48876;DHT22;34689;51.644;5.618;2023-05-07T04:23:56;15.80;99.90
48876;DHT22;34689;51.644;5.618;2023-05-07T04:26:24;15.80;99.90
48876;DHT22;34689;51.644;5.618;2023-05-07T04:28:55;15.80;99.90
48876;DHT22;34689;51.644;5.618;2023-05-07T04:31:22;15.80;99.90
48876;DHT22;34689;51.644;5.618;2023-05-07T04:33:47;15.70;99.90
48876;DHT22;34689;51.644;5.618;2023-05-07T04:36:13;15.80;99.90
48876;DHT22;34689;51.644;5.618;2023-05-07T04:38:39;15.80;99.90
48876;DHT22;34689;51.644;5.618;2023-05-07T04:41:06;15.80;99.90
48876;DHT22;34689;51.644;5.618;2023-05-07T04:43:32;15.70;99.90
48876;DHT22;34689;51.644;5.618;2023-05-07T04:45:59;15.70;99.90
48876;DHT22;34689;51.644;5.618;2023-05-07T04:48:27;15.70;99.90
48876;DHT22;34689;51.644;5.618;2023-05-07T04:50:54;15.70;99.90
48876;DHT22;34689;51.644;5.618;2023-05-07T04:53:20;15.80;99.90
48876;DHT22;34689;51.644;5.618;2023-05-07T04:55:46;15.70;99.90
48876;DHT22;34689;51.644;5.618;2023-05-07T04:58:12;15.70;99.90
48876;DHT22;34689;51.644;5.618;2023-05-07T05:00:41;15.80;99.90
48876;DHT22;34689;51.644;5.618;2023-05-07T05:03:07;15.70;99.90
48876;DHT22;34689;51.644;5.618;2023-05-07T05:05:36;15.70;99.90
48876;DHT22;34689;51.644;5.618;2023-05-07T05:08:02;15.70;99.90
48876;DHT22;34689;51.644;5.618;2023-05-07T05:10:27;15.70;99.90
48876;DHT22;34689;51.644;5.618;2023-05-07T05:12:55;15.80;99.90
48876;DHT22;34689;51.644;5.618;2023-05-07T05:15:21;15.70;99.90
48876;DHT22;34689;51.644;5.618;2023-05-07T05:17:47;15.80;99.90
48876;DHT22;34689;51.644;5.618;2023-05-07T05:20:13;15.80;99.90
48876;DHT22;34689;51.644;5.618;2023-05-07T05:22:40;15.80;99.90
48876;DHT22;34689;51.644;5.618;2023-05-07T05:25:06;15.80;99.90
48876;DHT22;34689;51.644;5.618;2023-05-07T05:27:32;15.80;99.90
48876;DHT22;34689;51.644;5.618;2023-05-07T05:30:00;15.80;99.90
48876;DHT22;34689;51.644;5.618;2023-05-07T05:32:25;15.80;99.90
48876;DHT22;34689;51.644;5.618;2023-05-07T05:34:51;15.80;99.90
48876;DHT22;34689;51.644;5.618;2023-05-07T05:37:17;15.80;99.90
48876;DHT22;34689;51.644;5.618;2023-05-07T05:39:43;15.80;99.90
48876;DHT22;34689;51.644;5.618;2023-05-07T05:42:09;15.80;99.90
48876;DHT22;34689;51.644;5.618;2023-05-07T05:44:37;15.90;99.90
48876;DHT22;34689;51.644;5.618;2023-05-07T05:47:03;15.90;99.90
48876;DHT22;34689;51.644;5.618;2023-05-07T05:49:28;15.90;99.90
48876;DHT22;34689;51.644;5.618;2023-05-07T05:51:54;15.90;99.90
48876;DHT22;34689;51.644;5.618;2023-05-07T05:54:21;15.90;99.90
48876;DHT22;34689;51.644;5.618;2023-05-07T05:56:49;16.00;99.90
48876;DHT22;34689;51.644;5.618;2023-05-07T05:59:15;16.00;99.90
48876;DHT22;34689;51.644;5.618;2023-05-07T06:01:41;16.00;99.90
48876;DHT22;34689;51.644;5.618;2023-05-07T06:04:06;16.00;99.90
48876;DHT22;34689;51.644;5.618;2023-05-07T06:06:34;16.00;99.90
48876;DHT22;34689;51.644;5.618;2023-05-07T06:09:00;16.00;99.90
48876;DHT22;34689;51.644;5.618;2023-05-07T06:11:26;16.10;99.90
48876;DHT22;34689;51.644;5.618;2023-05-07T06:13:52;16.00;99.90
48876;DHT22;34689;51.644;5.618;2023-05-07T06:16:21;16.10;99.90
48876;DHT22;34689;51.644;5.618;2023-05-07T06:18:49;16.10;99.90
48876;DHT22;34689;51.644;5.618;2023-05-07T06:21:15;16.10;99.90
48876;DHT22;34689;51.644;5.618;2023-05-07T06:23:41;16.10;99.90
48876;DHT22;34689;51.644;5.618;2023-05-07T06:26:07;16.20;99.90
48876;DHT22;34689;51.644;5.618;2023-05-07T06:28:32;16.20;99.90
48876;DHT22;34689;51.644;5.618;2023-05-07T06:31:16;16.20;99.90
48876;DHT22;34689;51.644;5.618;2023-05-07T06:33:44;16.20;99.90
48876;DHT22;34689;51.644;5.618;2023-05-07T06:36:09;16.20;99.90
48876;DHT22;34689;51.644;5.618;2023-05-07T06:38:35;16.20;99.90
48876;DHT22;34689;51.644;5.618;2023-05-07T06:41:01;16.20;99.90
48876;DHT22;34689;51.644;5.618;2023-05-07T06:43:27;16.30;99.90
48876;DHT22;34689;51.644;5.618;2023-05-07T06:45:52;16.30;99.90
48876;DHT22;34689;51.644;5.618;2023-05-07T06:48:18;16.30;99.90
48876;DHT22;34689;51.644;5.618;2023-05-07T06:50:46;16.40;99.90
48876;DHT22;34689;51.644;5.618;2023-05-07T06:53:14;16.40;99.90
48876;DHT22;34689;51.644;5.618;2023-05-07T06:55:40;16.40;99.90
48876;DHT22;34689;51.644;5.618;2023-05-07T06:58:07;16.40;99.90
48876;DHT22;34689;51.644;5.618;2023-05-07T07:00:33;16.40;99.90
48876;DHT22;34689;51.644;5.618;2023-05-07T07:03:01;16.50;99.90
48876;DHT22;34689;51.644;5.618;2023-05-07T07:05:26;16.50;99.90
48876;DHT22;34689;51.644;5.618;2023-05-07T07:07:52;16.50;99.90
48876;DHT22;34689;51.644;5.618;2023-05-07T07:10:26;16.50;99.90
48876;DHT22;34689;51.644;5.618;2023-05-07T07:12:52;16.50;99.90
48876;DHT22;34689;51.644;5.618;2023-05-07T07:15:21;16.50;99.90
48876;DHT22;34689;51.644;5.618;2023-05-07T07:17:47;16.50;99.90
48876;DHT22;34689;51.644;5.618;2023-05-07T07:20:13;16.50;99.90
48876;DHT22;34689;51.644;5.618;2023-05-07T07:22:39;16.60;99.90
48876;DHT22;34689;51.644;5.618;2023-05-07T07:25:05;16.60;99.90
48876;DHT22;34689;51.644;5.618;2023-05-07T07:27:30;16.60;99.90
48876;DHT22;34689;51.644;5.618;2023-05-07T07:29:56;16.60;99.90
48876;DHT22;34689;51.644;5.618;2023-05-07T07:32:22;16.60;99.90
48876;DHT22;34689;51.644;5.618;2023-05-07T07:34:47;16.70;99.90
48876;DHT22;34689;51.644;5.618;2023-05-07T07:37:13;16.70;99.90
48876;DHT22;34689;51.644;5.618;2023-05-07T07:39:39;16.70;99.90
48876;DHT22;34689;51.644;5.618;2023-05-07T07:42:04;16.70;99.90
48876;DHT22;34689;51.644;5.618;2023-05-07T07:44:30;16.70;99.90
48876;DHT22;34689;51.644;5.618;2023-05-07T07:46:58;16.70;99.90
48876;DHT22;34689;51.644;5.618;2023-05-07T07:49:24;16.70;99.90
48876;DHT22;34689;51.644;5.618;2023-05-07T07:51:50;16.70;99.90
48876;DHT22;34689;51.644;5.618;2023-05-07T07:54:16;16.80;99.90
48876;DHT22;34689;51.644;5.618;2023-05-07T07:56:45;16.80;99.90
48876;DHT22;34689;51.644;5.618;2023-05-07T07:59:13;16.80;99.90
48876;DHT22;34689;51.644;5.618;2023-05-07T08:01:43;16.80;99.90
48876;DHT22;34689;51.644;5.618;2023-05-07T08:04:08;16.80;99.90
48876;DHT22;34689;51.644;5.618;2023-05-07T08:06:36;16.80;99.90
48876;DHT22;34689;51.644;5.618;2023-05-07T08:09:03;16.90;99.90
48876;DHT22;34689;51.644;5.618;2023-05-07T08:11:28;16.90;99.90
48876;DHT22;34689;51.644;5.618;2023-05-07T08:13:54;16.90;99.90
48876;DHT22;34689;51.644;5.618;2023-05-07T08:16:20;17.00;99.90
48876;DHT22;34689;51.644;5.618;2023-05-07T08:18:48;17.00;99.90
48876;DHT22;34689;51.644;5.618;2023-05-07T08:21:16;17.00;99.90
48876;DHT22;34689;51.644;5.618;2023-05-07T08:23:42;17.10;99.90
48876;DHT22;34689;51.644;5.618;2023-05-07T08:26:12;17.20;99.90
48876;DHT22;34689;51.644;5.618;2023-05-07T08:28:38;17.20;99.90
48876;DHT22;34689;51.644;5.618;2023-05-07T08:31:07;17.30;99.90
48876;DHT22;34689;51.644;5.618;2023-05-07T08:33:33;17.40;99.90
48876;DHT22;34689;51.644;5.618;2023-05-07T08:35:58;17.50;99.90
48876;DHT22;34689;51.644;5.618;2023-05-07T08:38:29;17.50;99.90
48876;DHT22;34689;51.644;5.618;2023-05-07T08:40:57;17.70;99.90
48876;DHT22;34689;51.644;5.618;2023-05-07T08:43:26;17.70;99.90
48876;DHT22;34689;51.644;5.618;2023-05-07T08:45:53;17.80;99.90
48876;DHT22;34689;51.644;5.618;2023-05-07T08:48:27;17.80;99.90
48876;DHT22;34689;51.644;5.618;2023-05-07T08:51:00;17.90;99.90
48876;DHT22;34689;51.644;5.618;2023-05-07T08:53:29;18.00;99.90
48876;DHT22;34689;51.644;5.618;2023-05-07T08:55:57;18.00;99.90
48876;DHT22;34689;51.644;5.618;2023-05-07T08:58:26;18.10;99.90
48876;DHT22;34689;51.644;5.618;2023-05-07T09:00:53;18.10;99.90
48876;DHT22;34689;51.644;5.618;2023-05-07T09:03:19;18.20;99.90
48876;DHT22;34689;51.644;5.618;2023-05-07T09:05:45;18.20;99.90
48876;DHT22;34689;51.644;5.618;2023-05-07T09:08:16;18.20;99.90
48876;DHT22;34689;51.644;5.618;2023-05-07T09:10:42;18.30;99.90
48876;DHT22;34689;51.644;5.618;2023-05-07T09:13:10;18.30;99.90
48876;DHT22;34689;51.644;5.618;2023-05-07T09:15:38;18.40;99.90
48876;DHT22;34689;51.644;5.618;2023-05-07T09:18:04;18.30;99.90
48876;DHT22;34689;51.644;5.618;2023-05-07T09:20:32;18.40;99.90
48876;DHT22;34689;51.644;5.618;2023-05-07T09:22:58;18.40;99.90
48876;DHT22;34689;51.644;5.618;2023-05-07T09:25:31;18.40;99.90
48876;DHT22;34689;51.644;5.618;2023-05-07T09:27:58;18.40;99.90
48876;DHT22;34689;51.644;5.618;2023-05-07T09:30:30;18.50;99.90
48876;DHT22;34689;51.644;5.618;2023-05-07T09:33:00;18.50;99.90
48876;DHT22;34689;51.644;5.618;2023-05-07T09:35:27;18.50;99.90
48876;DHT22;34689;51.644;5.618;2023-05-07T09:37:59;18.60;99.90
48876;DHT22;34689;51.644;5.618;2023-05-07T09:40:26;18.60;99.90
48876;DHT22;34689;51.644;5.618;2023-05-07T09:42:53;18.60;99.90
48876;DHT22;34689;51.644;5.618;2023-05-07T09:45:24;18.70;99.90
48876;DHT22;34689;51.644;5.618;2023-05-07T09:47:54;18.70;99.90
48876;DHT22;34689;51.644;5.618;2023-05-07T09:50:28;18.70;99.90
48876;DHT22;34689;51.644;5.618;2023-05-07T09:52:57;18.70;99.90
48876;DHT22;34689;51.644;5.618;2023-05-07T09:55:23;18.70;99.90
48876;DHT22;34689;51.644;5.618;2023-05-07T09:57:53;18.70;99.90
48876;DHT22;34689;51.644;5.618;2023-05-07T10:00:20;18.80;99.90
48876;DHT22;34689;51.644;5.618;2023-05-07T10:02:51;18.80;99.90
48876;DHT22;34689;51.644;5.618;2023-05-07T10:05:21;18.80;99.90
48876;DHT22;34689;51.644;5.618;2023-05-07T10:07:48;18.90;99.90
48876;DHT22;34689;51.644;5.618;2023-05-07T10:10:15;19.00;99.90
48876;DHT22;34689;51.644;5.618;2023-05-07T10:12:41;19.10;99.90
48876;DHT22;34689;51.644;5.618;2023-05-07T10:15:11;19.20;99.90
48876;DHT22;34689;51.644;5.618;2023-05-07T10:17:38;19.30;99.90
48876;DHT22;34689;51.644;5.618;2023-05-07T10:20:07;19.40;99.90
48876;DHT22;34689;51.644;5.618;2023-05-07T10:22:41;19.40;99.90
48876;DHT22;34689;51.644;5.618;2023-05-07T10:25:29;19.40;99.90
48876;DHT22;34689;51.644;5.618;2023-05-07T10:28:00;19.40;99.90
48876;DHT22;34689;51.644;5.618;2023-05-07T10:33:11;19.50;99.90
48876;DHT22;34689;51.644;5.618;2023-05-07T10:35:41;19.50;99.90
48876;DHT22;34689;51.644;5.618;2023-05-07T10:38:08;19.50;99.90
48876;DHT22;34689;51.644;5.618;2023-05-07T10:40:34;19.50;99.90
48876;DHT22;34689;51.644;5.618;2023-05-07T10:43:02;19.50;99.90
48876;DHT22;34689;51.644;5.618;2023-05-07T10:45:30;19.50;99.90
48876;DHT22;34689;51.644;5.618;2023-05-07T10:50:31;19.50;99.90
48876;DHT22;34689;51.644;5.618;2023-05-07T10:55:46;19.40;99.90
48876;DHT22;34689;51.644;5.618;2023-05-07T10:58:28;19.40;99.90
48876;DHT22;34689;51.644;5.618;2023-05-07T11:01:01;19.40;99.90
48876;DHT22;34689;51.644;5.618;2023-05-07T11:03:27;19.40;99.90
48876;DHT22;34689;51.644;5.618;2023-05-07T11:06:15;19.50;99.90
48876;DHT22;34689;51.644;5.618;2023-05-07T11:11:19;19.50;99.90
48876;DHT22;34689;51.644;5.618;2023-05-07T11:13:48;19.60;99.90
48876;DHT22;34689;51.644;5.618;2023-05-07T11:18:51;19.70;99.90
48876;DHT22;34689;51.644;5.618;2023-05-07T11:21:33;19.80;99.90
48876;DHT22;34689;51.644;5.618;2023-05-07T11:24:00;19.90;99.90
48876;DHT22;34689;51.644;5.618;2023-05-07T11:26:27;20.00;99.90
48876;DHT22;34689;51.644;5.618;2023-05-07T11:28:54;20.10;99.90
48876;DHT22;34689;51.644;5.618;2023-05-07T11:31:25;20.20;99.90
48876;DHT22;34689;51.644;5.618;2023-05-07T11:33:54;20.20;99.90
48876;DHT22;34689;51.644;5.618;2023-05-07T11:36:24;20.20;99.90
48876;DHT22;34689;51.644;5.618;2023-05-07T11:38:51;20.20;99.90
48876;DHT22;34689;51.644;5.618;2023-05-07T11:41:17;20.30;99.90
48876;DHT22;34689;51.644;5.618;2023-05-07T11:43:58;20.30;99.90
48876;DHT22;34689;51.644;5.618;2023-05-07T11:46:27;20.40;99.90
48876;DHT22;34689;51.644;5.618;2023-05-07T11:48:54;20.40;99.90
48876;DHT22;34689;51.644;5.618;2023-05-07T11:51:22;20.40;99.90
48876;DHT22;34689;51.644;5.618;2023-05-07T11:53:48;20.40;99.90
48876;DHT22;34689;51.644;5.618;2023-05-07T11:56:16;20.50;99.90
48876;DHT22;34689;51.644;5.618;2023-05-07T11:58:43;20.50;99.90
48876;DHT22;34689;51.644;5.618;2023-05-07T12:01:10;20.50;99.90
48876;DHT22;34689;51.644;5.618;2023-05-07T12:03:36;20.50;99.90
48876;DHT22;34689;51.644;5.618;2023-05-07T12:06:05;20.50;99.90
48876;DHT22;34689;51.644;5.618;2023-05-07T12:08:33;20.50;99.90
48876;DHT22;34689;51.644;5.618;2023-05-07T12:11:01;20.60;99.90
48876;DHT22;34689;51.644;5.618;2023-05-07T12:13:27;20.60;99.90
48876;DHT22;34689;51.644;5.618;2023-05-07T12:15:54;20.60;99.90
48876;DHT22;34689;51.644;5.618;2023-05-07T12:18:21;20.60;99.90
48876;DHT22;34689;51.644;5.618;2023-05-07T12:20:47;20.50;99.90
48876;DHT22;34689;51.644;5.618;2023-05-07T12:23:13;20.50;99.90
48876;DHT22;34689;51.644;5.618;2023-05-07T12:25:43;20.40;99.90
48876;DHT22;34689;51.644;5.618;2023-05-07T12:28:18;20.40;99.90
48876;DHT22;34689;51.644;5.618;2023-05-07T12:30:48;20.40;99.90
48876;DHT22;34689;51.644;5.618;2023-05-07T12:33:23;20.40;99.90
48876;DHT22;34689;51.644;5.618;2023-05-07T12:35:49;20.40;99.90
48876;DHT22;34689;51.644;5.618;2023-05-07T12:38:16;20.30;99.90
48876;DHT22;34689;51.644;5.618;2023-05-07T12:40:46;20.30;99.90
48876;DHT22;34689;51.644;5.618;2023-05-07T12:45:51;20.20;99.90
48876;DHT22;34689;51.644;5.618;2023-05-07T12:48:19;20.20;99.90
48876;DHT22;34689;51.644;5.618;2023-05-07T12:50:45;20.20;99.90
48876;DHT22;34689;51.644;5.618;2023-05-07T12:53:11;20.20;99.90
48876;DHT22;34689;51.644;5.618;2023-05-07T12:55:46;20.10;99.90
48876;DHT22;34689;51.644;5.618;2023-05-07T12:58:20;20.10;99.90
48876;DHT22;34689;51.644;5.618;2023-05-07T13:00:48;20.00;99.90
48876;DHT22;34689;51.644;5.618;2023-05-07T13:05:58;20.00;99.90
48876;DHT22;34689;51.644;5.618;2023-05-07T13:08:32;20.00;99.90
48876;DHT22;34689;51.644;5.618;2023-05-07T13:11:02;19.90;99.90
48876;DHT22;34689;51.644;5.618;2023-05-07T13:13:33;20.00;99.90
48876;DHT22;34689;51.644;5.618;2023-05-07T13:15:59;19.90;99.90
48876;DHT22;34689;51.644;5.618;2023-05-07T13:18:26;19.80;99.90
48876;DHT22;34689;51.644;5.618;2023-05-07T13:20:53;19.80;99.90
48876;DHT22;34689;51.644;5.618;2023-05-07T13:23:18;19.80;99.90
48876;DHT22;34689;51.644;5.618;2023-05-07T13:25:44;19.80;99.90
48876;DHT22;34689;51.644;5.618;2023-05-07T13:28:10;19.80;99.90
48876;DHT22;34689;51.644;5.618;2023-05-07T13:30:39;19.80;99.90
48876;DHT22;34689;51.644;5.618;2023-05-07T13:33:08;19.70;99.90
48876;DHT22;34689;51.644;5.618;2023-05-07T13:35:34;19.60;99.90
48876;DHT22;34689;51.644;5.618;2023-05-07T13:38:00;19.40;99.90
48876;DHT22;34689;51.644;5.618;2023-05-07T13:40:25;19.20;99.90
48876;DHT22;34689;51.644;5.618;2023-05-07T13:42:53;19.00;99.90
48876;DHT22;34689;51.644;5.618;2023-05-07T13:45:22;18.80;99.90
48876;DHT22;34689;51.644;5.618;2023-05-07T13:47:55;18.70;99.90
48876;DHT22;34689;51.644;5.618;2023-05-07T13:50:21;18.60;99.90
48876;DHT22;34689;51.644;5.618;2023-05-07T13:52:47;18.40;99.90
48876;DHT22;34689;51.644;5.618;2023-05-07T13:55:21;18.30;99.90
48876;DHT22;34689;51.644;5.618;2023-05-07T13:57:47;18.20;99.90
48876;DHT22;34689;51.644;5.618;2023-05-07T14:00:22;18.10;99.90
48876;DHT22;34689;51.644;5.618;2023-05-07T14:02:48;17.90;99.90
48876;DHT22;34689;51.644;5.618;2023-05-07T14:05:14;17.70;99.90
48876;DHT22;34689;51.644;5.618;2023-05-07T14:07:41;17.60;99.90
48876;DHT22;34689;51.644;5.618;2023-05-07T14:10:11;17.40;99.90
48876;DHT22;34689;51.644;5.618;2023-05-07T14:12:39;17.30;99.90
48876;DHT22;34689;51.644;5.618;2023-05-07T14:15:09;17.20;99.90
48876;DHT22;34689;51.644;5.618;2023-05-07T14:17:38;17.10;99.90
48876;DHT22;34689;51.644;5.618;2023-05-07T14:20:07;17.00;99.90
48876;DHT22;34689;51.644;5.618;2023-05-07T14:22:37;16.90;99.90
48876;DHT22;34689;51.644;5.618;2023-05-07T14:25:08;16.80;99.90
48876;DHT22;34689;51.644;5.618;2023-05-07T14:27:41;16.80;99.90
48876;DHT22;34689;51.644;5.618;2023-05-07T14:30:07;16.70;99.90
48876;DHT22;34689;51.644;5.618;2023-05-07T14:32:33;16.70;99.90
48876;DHT22;34689;51.644;5.618;2023-05-07T14:35:00;16.60;99.90
48876;DHT22;34689;51.644;5.618;2023-05-07T14:37:25;16.70;99.90
48876;DHT22;34689;51.644;5.618;2023-05-07T14:39:54;16.60;99.90
48876;DHT22;34689;51.644;5.618;2023-05-07T14:42:20;16.60;99.90
48876;DHT22;34689;51.644;5.618;2023-05-07T14:44:48;16.60;99.90
48876;DHT22;34689;51.644;5.618;2023-05-07T14:47:14;16.60;99.90
48876;DHT22;34689;51.644;5.618;2023-05-07T14:49:41;16.60;99.90
48876;DHT22;34689;51.644;5.618;2023-05-07T14:52:10;16.60;99.90
48876;DHT22;34689;51.644;5.618;2023-05-07T14:54:37;16.60;99.90
48876;DHT22;34689;51.644;5.618;2023-05-07T14:57:08;16.60;99.90
48876;DHT22;34689;51.644;5.618;2023-05-07T14:59:38;16.70;99.90
48876;DHT22;34689;51.644;5.618;2023-05-07T15:02:07;16.70;99.90
48876;DHT22;34689;51.644;5.618;2023-05-07T15:04:34;16.70;99.90
48876;DHT22;34689;51.644;5.618;2023-05-07T15:07:03;16.70;99.90
48876;DHT22;34689;51.644;5.618;2023-05-07T15:09:35;16.70;99.90
48876;DHT22;34689;51.644;5.618;2023-05-07T15:12:03;16.70;99.90
48876;DHT22;34689;51.644;5.618;2023-05-07T15:14:29;16.70;99.90
48876;DHT22;34689;51.644;5.618;2023-05-07T15:16:57;16.70;99.90
48876;DHT22;34689;51.644;5.618;2023-05-07T15:19:26;16.70;99.90
48876;DHT22;34689;51.644;5.618;2023-05-07T15:21:58;16.70;99.90
48876;DHT22;34689;51.644;5.618;2023-05-07T15:24:28;16.70;99.90
48876;DHT22;34689;51.644;5.618;2023-05-07T15:26:54;16.80;99.90
48876;DHT22;34689;51.644;5.618;2023-05-07T15:29:21;16.80;99.90
48876;DHT22;34689;51.644;5.618;2023-05-07T15:31:47;16.80;99.90
48876;DHT22;34689;51.644;5.618;2023-05-07T15:34:16;16.90;99.90
48876;DHT22;34689;51.644;5.618;2023-05-07T15:36:42;16.80;99.90
48876;DHT22;34689;51.644;5.618;2023-05-07T15:39:07;16.90;99.90
48876;DHT22;34689;51.644;5.618;2023-05-07T15:41:34;16.80;99.90
48876;DHT22;34689;51.644;5.618;2023-05-07T15:44:02;16.90;99.90
48876;DHT22;34689;51.644;5.618;2023-05-07T15:46:28;16.80;99.90
48876;DHT22;34689;51.644;5.618;2023-05-07T15:48:53;16.90;99.90
48876;DHT22;34689;51.644;5.618;2023-05-07T15:51:19;16.90;99.90